createdAt,value
2023-12-28T00:02:22.356Z,74.67
2023-12-28T00:04:49.770Z,74.62
2023-12-28T00:07:16.875Z,74.61
2023-12-28T00:09:44.282Z,74.63
2023-12-28T00:12:11.725Z,74.64
2023-12-28T00:14:38.766Z,74.68
2023-12-28T00:17:06.172Z,74.68
2023-12-28T00:19:33.928Z,74.69
2023-12-28T00:22:00.804Z,74.72
2023-12-28T00:24:28.242Z,74.66
2023-12-28T00:26:55.890Z,74.71
2023-12-28T00:29:23.283Z,74.74
2023-12-28T00:31:50.400Z,74.80
2023-12-28T00:34:18.010Z,74.82
2023-12-28T00:36:45.580Z,74.79
2023-12-28T00:39:12.866Z,74.80
2023-12-28T00:41:40.595Z,74.85
2023-12-28T00:44:10.961Z,74.88
2023-12-28T00:46:38.556Z,74.85
2023-12-28T00:49:06.501Z,74.88
2023-12-28T00:51:33.769Z,74.90
2023-12-28T00:54:00.971Z,74.90
2023-12-28T00:56:28.957Z,74.86
2023-12-28T00:58:56.296Z,74.89
2023-12-28T01:01:23.564Z,74.88
2023-12-28T01:03:51.243Z,74.92
2023-12-28T01:06:18.929Z,74.88
2023-12-28T01:08:46.094Z,74.90
2023-12-28T01:11:13.603Z,74.90
2023-12-28T01:13:43.244Z,74.90
2023-12-28T01:16:10.688Z,74.89
2023-12-28T01:18:38.264Z,74.92
2023-12-28T01:21:06.165Z,74.93
2023-12-28T01:23:33.863Z,74.98
2023-12-28T01:26:01.347Z,74.99
2023-12-28T01:28:29.633Z,75.00
2023-12-28T01:30:57.152Z,74.95
2023-12-28T01:33:24.766Z,74.97
2023-12-28T01:35:52.159Z,74.99
2023-12-28T01:38:19.217Z,74.97
2023-12-28T01:40:47.627Z,75.02
2023-12-28T01:43:15.093Z,75.05
2023-12-28T01:45:42.326Z,75.15
2023-12-28T01:48:10.870Z,75.09
2023-12-28T01:50:39.017Z,75.05
2023-12-28T01:53:08.116Z,75.08
2023-12-28T01:55:35.539Z,75.11
2023-12-28T01:58:04.191Z,75.08
2023-12-28T02:00:33.097Z,75.09
2023-12-28T02:03:01.559Z,75.11
2023-12-28T02:05:28.952Z,75.12
2023-12-28T02:07:56.484Z,75.09
2023-12-28T02:10:24.094Z,75.08
2023-12-28T02:12:54.255Z,75.05
2023-12-28T02:15:21.722Z,74.98
2023-12-28T02:17:57.228Z,74.95
2023-12-28T02:20:26.470Z,74.91
2023-12-28T02:22:54.363Z,74.93
2023-12-28T02:25:21.740Z,74.97
2023-12-28T02:27:50.774Z,75.09
2023-12-28T02:30:20.371Z,75.12
2023-12-28T02:33:09.062Z,75.16
2023-12-28T02:35:44.469Z,75.21
2023-12-28T02:38:14.904Z,75.28
2023-12-28T02:40:45.255Z,75.35
2023-12-28T02:43:13.552Z,75.35
2023-12-28T02:45:41.415Z,75.29
2023-12-28T02:48:09.179Z,75.30
2023-12-28T02:50:37.084Z,75.27
2023-12-28T02:53:05.149Z,75.30
2023-12-28T02:55:32.827Z,75.28
2023-12-28T02:58:03.322Z,75.29
2023-12-28T03:00:31.591Z,75.22
2023-12-28T03:02:59.057Z,75.22
2023-12-28T03:05:26.184Z,75.23
2023-12-28T03:07:53.952Z,75.23
2023-12-28T03:10:21.139Z,75.23
2023-12-28T03:12:49.246Z,75.25
2023-12-28T03:15:16.523Z,75.31
2023-12-28T03:17:43.950Z,75.33
2023-12-28T03:20:12.045Z,75.29
2023-12-28T03:22:39.479Z,75.34
2023-12-28T03:25:06.941Z,75.32
2023-12-28T03:27:34.798Z,75.31
2023-12-28T03:30:02.155Z,75.31
2023-12-28T03:32:29.630Z,75.28
2023-12-28T03:34:56.950Z,75.31
2023-12-28T03:37:24.388Z,75.33
2023-12-28T03:39:51.958Z,75.26
2023-12-28T03:42:19.474Z,75.20
2023-12-28T03:44:46.521Z,75.24
2023-12-28T03:47:13.756Z,75.26
2023-12-28T03:49:41.232Z,75.28
2023-12-28T03:52:09.147Z,75.30
2023-12-28T03:54:36.429Z,75.32
2023-12-28T03:57:03.990Z,75.42
2023-12-28T03:59:31.169Z,75.39
2023-12-28T04:01:58.515Z,75.43
2023-12-28T04:04:25.556Z,75.46
2023-12-28T04:06:53.377Z,75.54
2023-12-28T04:09:20.800Z,75.54
2023-12-28T04:11:47.833Z,75.65
2023-12-28T04:14:15.445Z,75.66
2023-12-28T04:16:42.468Z,75.65
2023-12-28T04:19:10.158Z,75.70
2023-12-28T04:21:37.322Z,75.79
2023-12-28T04:24:05.142Z,75.85
2023-12-28T04:26:32.202Z,75.88
2023-12-28T04:28:59.932Z,75.87
2023-12-28T04:31:27.326Z,75.90
2023-12-28T04:33:54.637Z,75.91
2023-12-28T04:36:22.107Z,75.86
2023-12-28T04:38:49.668Z,75.96
2023-12-28T04:41:16.872Z,76.03
2023-12-28T04:43:44.518Z,76.11
2023-12-28T04:46:11.961Z,76.13
2023-12-28T04:48:39.245Z,76.11
2023-12-28T04:51:06.544Z,76.09
2023-12-28T04:53:35.037Z,76.04
2023-12-28T04:56:02.497Z,76.10
2023-12-28T04:58:30.305Z,76.24
2023-12-28T05:00:57.551Z,76.32
2023-12-28T05:03:24.873Z,76.41
2023-12-28T05:05:52.056Z,76.48
2023-12-28T05:08:19.082Z,76.45
2023-12-28T05:10:46.732Z,76.47
2023-12-28T05:13:14.046Z,76.52
2023-12-28T05:15:41.178Z,76.54
2023-12-28T05:18:09.913Z,76.60
2023-12-28T05:20:37.723Z,76.65
2023-12-28T05:23:05.385Z,76.56
2023-12-28T05:25:32.536Z,76.60
2023-12-28T05:28:00.235Z,76.60
2023-12-28T05:30:28.024Z,76.60
2023-12-28T05:32:55.560Z,76.65
2023-12-28T05:35:22.603Z,76.66
2023-12-28T05:37:50.030Z,76.66
2023-12-28T05:40:17.216Z,76.67
2023-12-28T05:42:44.671Z,76.66
2023-12-28T05:45:12.393Z,76.68
2023-12-28T05:47:39.774Z,76.67
2023-12-28T05:50:07.674Z,76.70
2023-12-28T05:52:34.997Z,76.73
2023-12-28T05:55:02.701Z,76.81
2023-12-28T05:57:31.972Z,76.80
2023-12-28T05:59:59.434Z,76.79
2023-12-28T06:02:26.802Z,76.76
2023-12-28T06:04:53.867Z,76.82
2023-12-28T06:07:21.742Z,76.87
2023-12-28T06:09:49.136Z,76.95
2023-12-28T06:12:16.317Z,76.99
2023-12-28T06:14:44.192Z,77.16
2023-12-28T06:17:11.595Z,77.14
2023-12-28T06:19:38.767Z,77.14
2023-12-28T06:22:06.490Z,77.12
2023-12-28T06:24:33.988Z,77.33
2023-12-28T06:27:01.990Z,77.26
2023-12-28T06:29:29.001Z,77.48
2023-12-28T06:31:56.381Z,77.32
2023-12-28T06:34:23.991Z,77.25
2023-12-28T06:36:51.209Z,77.08
2023-12-28T06:39:18.303Z,76.96
2023-12-28T06:41:50.033Z,77.00
2023-12-28T06:44:17.442Z,76.94
2023-12-28T06:46:44.586Z,76.90
2023-12-28T06:49:12.179Z,77.03
2023-12-28T06:51:39.705Z,76.94
2023-12-28T06:54:07.145Z,76.95
2023-12-28T06:56:34.167Z,76.87
2023-12-28T06:59:01.567Z,76.71
2023-12-28T07:01:28.744Z,76.69
2023-12-28T07:03:56.270Z,76.66
2023-12-28T07:06:23.656Z,76.57
2023-12-28T07:08:51.306Z,76.46
2023-12-28T07:11:19.114Z,76.38
2023-12-28T07:13:46.218Z,76.28
2023-12-28T07:16:14.302Z,76.16
2023-12-28T07:18:44.581Z,76.05
2023-12-28T07:21:12.614Z,75.87
2023-12-28T07:23:39.561Z,75.80
2023-12-28T07:26:07.015Z,75.71
2023-12-28T07:28:33.951Z,75.65
2023-12-28T07:31:01.180Z,75.54
2023-12-28T07:33:28.732Z,75.49
2023-12-28T07:35:56.005Z,75.44
2023-12-28T07:38:23.653Z,75.39
2023-12-28T07:40:50.902Z,75.29
2023-12-28T07:43:18.031Z,75.21
2023-12-28T07:45:45.820Z,75.13
2023-12-28T07:48:13.612Z,75.09
2023-12-28T07:50:41.652Z,75.03
2023-12-28T07:53:08.407Z,74.93
2023-12-28T07:55:35.513Z,74.72
2023-12-28T07:58:03.347Z,74.67
2023-12-28T08:00:30.946Z,74.63
2023-12-28T08:02:57.956Z,74.59
2023-12-28T08:05:25.728Z,74.51
2023-12-28T08:07:52.562Z,74.43
2023-12-28T08:10:19.899Z,74.29
2023-12-28T08:12:47.009Z,74.20
2023-12-28T08:15:14.136Z,74.15
2023-12-28T08:17:41.535Z,74.14
2023-12-28T08:20:09.549Z,74.11
2023-12-28T08:22:36.928Z,74.07
2023-12-28T08:25:04.400Z,74.01
2023-12-28T08:27:32.121Z,74.01
2023-12-28T08:29:58.994Z,73.92
2023-12-28T08:32:26.719Z,73.86
2023-12-28T08:34:54.227Z,73.77
2023-12-28T08:37:21.919Z,73.70
2023-12-28T08:39:49.347Z,73.66
2023-12-28T08:42:16.534Z,73.59
2023-12-28T08:44:43.367Z,73.57
2023-12-28T08:47:11.039Z,73.53
2023-12-28T08:49:38.596Z,73.45
2023-12-28T08:52:05.993Z,73.46
2023-12-28T08:54:33.442Z,73.43
2023-12-28T08:57:00.563Z,73.39
2023-12-28T08:59:27.743Z,73.39
2023-12-28T09:01:56.366Z,73.32
2023-12-28T09:04:23.315Z,73.30
2023-12-28T09:06:50.835Z,73.33
2023-12-28T09:09:18.355Z,73.33
2023-12-28T09:11:45.517Z,73.32
2023-12-28T09:14:12.637Z,73.24
2023-12-28T09:16:42.213Z,73.23
2023-12-28T09:19:10.170Z,73.19
2023-12-28T09:21:37.603Z,73.17
2023-12-28T09:24:05.013Z,73.17
2023-12-28T09:26:33.809Z,73.11
2023-12-28T09:29:01.280Z,73.08
2023-12-28T09:31:28.846Z,73.07
2023-12-28T09:33:55.990Z,73.01
2023-12-28T09:36:23.523Z,73.00
2023-12-28T09:38:52.512Z,72.96
2023-12-28T09:41:26.890Z,72.97
2023-12-28T09:43:59.723Z,73.02
2023-12-28T09:46:28.180Z,72.98
2023-12-28T09:48:57.882Z,72.93
2023-12-28T09:51:26.910Z,72.86
2023-12-28T09:53:55.369Z,72.82
2023-12-28T09:56:23.134Z,72.79
2023-12-28T09:58:52.274Z,72.85
2023-12-28T10:01:20.511Z,72.83
2023-12-28T10:03:47.971Z,72.83
2023-12-28T10:06:17.688Z,72.78
2023-12-28T10:08:49.482Z,72.74
2023-12-28T10:11:20.122Z,72.69
2023-12-28T10:13:48.055Z,72.66
2023-12-28T10:16:14.917Z,72.64
2023-12-28T10:18:44.153Z,72.59
2023-12-28T10:21:13.073Z,72.56
2023-12-28T10:23:40.363Z,72.52
2023-12-28T10:26:07.679Z,72.47
2023-12-28T10:28:41.312Z,72.46
2023-12-28T10:31:09.336Z,72.47
2023-12-28T10:33:38.703Z,72.45
2023-12-28T10:36:08.240Z,72.45
2023-12-28T10:38:38.358Z,72.46
2023-12-28T10:41:08.043Z,72.43
2023-12-28T10:44:07.940Z,72.37
2023-12-28T10:46:45.197Z,72.37
2023-12-28T10:49:17.738Z,72.35
2023-12-28T10:51:47.113Z,72.33
2023-12-28T10:54:17.940Z,72.30
2023-12-28T10:56:54.124Z,72.29
2023-12-28T10:59:33.679Z,72.24
2023-12-28T11:02:06.399Z,72.19
2023-12-28T11:04:49.692Z,72.15
2023-12-28T11:07:19.800Z,72.08
2023-12-28T11:09:47.308Z,72.06
2023-12-28T11:12:14.498Z,72.05
2023-12-28T11:14:43.870Z,72.00
2023-12-28T11:17:12.282Z,71.97
2023-12-28T11:19:40.988Z,71.96
2023-12-28T11:22:09.032Z,71.92
2023-12-28T11:24:36.075Z,71.87
2023-12-28T11:27:03.951Z,71.84
2023-12-28T11:29:34.926Z,71.79
2023-12-28T11:32:02.395Z,71.77
2023-12-28T11:34:31.271Z,71.74
2023-12-28T11:37:11.709Z,71.71
2023-12-28T11:39:41.625Z,71.73
2023-12-28T11:42:09.995Z,71.73
2023-12-28T11:44:45.829Z,71.77
2023-12-28T11:47:17.562Z,71.76
2023-12-28T11:49:49.377Z,71.78
2023-12-28T11:52:32.063Z,71.80
2023-12-28T11:55:01.919Z,71.81
2023-12-28T11:57:29.360Z,71.81
2023-12-28T12:00:01.425Z,71.80
2023-12-28T12:02:29.226Z,71.77
2023-12-28T12:04:58.918Z,71.75
2023-12-28T12:07:27.048Z,71.74
2023-12-28T12:09:59.453Z,71.72
2023-12-28T12:12:27.787Z,71.73
2023-12-28T12:14:55.357Z,71.74
2023-12-28T12:17:22.452Z,71.72
2023-12-28T12:19:52.747Z,71.68
2023-12-28T12:22:20.526Z,71.67
2023-12-28T12:24:50.569Z,71.69
2023-12-28T12:27:18.921Z,71.68
2023-12-28T12:29:46.484Z,71.69
2023-12-28T12:32:14.803Z,71.69
2023-12-28T12:34:42.188Z,71.71
2023-12-28T12:37:10.417Z,71.70
2023-12-28T12:39:37.846Z,71.72
2023-12-28T12:42:05.854Z,71.75
2023-12-28T12:44:32.798Z,71.76
2023-12-28T12:47:00.919Z,71.71
2023-12-28T12:49:28.661Z,71.70
2023-12-28T12:51:56.970Z,71.73
2023-12-28T12:54:24.508Z,71.73
2023-12-28T12:56:52.571Z,71.75
2023-12-28T12:59:19.454Z,71.76
2023-12-28T13:01:50.987Z,71.76
2023-12-28T13:04:19.119Z,71.77
2023-12-28T13:06:46.931Z,71.78
2023-12-28T13:09:14.289Z,71.79
2023-12-28T13:11:41.486Z,71.81
2023-12-28T13:14:08.601Z,71.83
2023-12-28T13:16:36.206Z,71.85
2023-12-28T13:19:04.074Z,71.87
2023-12-28T13:21:31.613Z,71.89
2023-12-28T13:24:01.136Z,71.90
2023-12-28T13:26:28.905Z,71.91
2023-12-28T13:28:57.624Z,71.93
2023-12-28T13:31:26.157Z,71.93
2023-12-28T13:33:53.985Z,71.93
2023-12-28T13:36:21.207Z,71.93
2023-12-28T13:38:49.459Z,71.92
2023-12-28T13:41:16.883Z,71.93
2023-12-28T13:43:43.745Z,71.95
2023-12-28T13:46:10.919Z,71.95
2023-12-28T13:48:41.174Z,71.96
2023-12-28T13:51:08.643Z,71.92
2023-12-28T13:53:42.256Z,71.92
2023-12-28T13:56:10.127Z,71.92
2023-12-28T13:58:37.448Z,71.92
2023-12-28T14:01:05.228Z,71.91
2023-12-28T14:03:32.978Z,71.93
2023-12-28T14:06:00.567Z,71.96
2023-12-28T14:08:28.087Z,71.92
2023-12-28T14:10:55.361Z,71.95
2023-12-28T14:13:23.169Z,71.95
2023-12-28T14:15:50.589Z,71.96
2023-12-28T14:18:18.070Z,72.00
2023-12-28T14:20:45.268Z,72.05
2023-12-28T14:23:13.894Z,72.07
2023-12-28T14:25:41.268Z,72.09
2023-12-28T14:28:09.408Z,72.09
2023-12-28T14:30:37.290Z,72.12
2023-12-28T14:33:04.839Z,72.14
2023-12-28T14:35:32.970Z,72.16
2023-12-28T14:38:00.083Z,72.20
2023-12-28T14:40:27.047Z,72.22
2023-12-28T14:42:54.673Z,72.28
2023-12-28T14:45:21.803Z,72.33
2023-12-28T14:47:49.530Z,72.33
2023-12-28T14:50:16.790Z,72.36
2023-12-28T14:52:44.380Z,72.37
2023-12-28T14:55:11.956Z,72.40
2023-12-28T14:57:39.357Z,72.42
2023-12-28T15:00:07.097Z,72.46
2023-12-28T15:02:34.964Z,72.50
2023-12-28T15:05:02.318Z,72.54
2023-12-28T15:07:29.865Z,72.57
2023-12-28T15:09:59.745Z,72.66
2023-12-28T15:12:27.124Z,72.68
2023-12-28T15:14:55.151Z,72.76
2023-12-28T15:17:23.341Z,72.80
2023-12-28T15:19:51.958Z,72.83
2023-12-28T15:22:19.481Z,72.91
2023-12-28T15:24:47.235Z,72.89
2023-12-28T15:27:14.920Z,72.96
2023-12-28T15:29:41.919Z,73.06
2023-12-28T15:32:08.989Z,73.08
2023-12-28T15:34:37.166Z,73.11
2023-12-28T15:37:04.885Z,73.19
2023-12-28T15:39:32.868Z,73.24
2023-12-28T15:42:00.583Z,73.32
2023-12-28T15:44:28.112Z,73.38
2023-12-28T15:46:55.872Z,73.44
2023-12-28T15:49:23.071Z,73.49
2023-12-28T15:51:50.275Z,73.50
2023-12-28T15:54:17.414Z,73.58
2023-12-28T15:56:44.442Z,73.61
2023-12-28T15:59:11.904Z,73.67
2023-12-28T16:01:38.843Z,73.79
2023-12-28T16:04:06.270Z,73.84
2023-12-28T16:06:33.532Z,73.91
2023-12-28T16:09:01.749Z,73.98
2023-12-28T16:11:28.887Z,74.06
2023-12-28T16:13:56.820Z,74.06
2023-12-28T16:16:24.318Z,74.12
2023-12-28T16:18:52.096Z,74.14
2023-12-28T16:21:19.838Z,74.18
2023-12-28T16:23:47.230Z,74.30
2023-12-28T16:26:15.485Z,74.30
2023-12-28T16:28:43.026Z,74.35
2023-12-28T16:31:10.027Z,74.45
2023-12-28T16:33:37.629Z,74.46
2023-12-28T16:36:05.316Z,74.56
2023-12-28T16:38:33.478Z,74.57
2023-12-28T16:41:00.929Z,74.65
2023-12-28T16:43:31.372Z,74.71
2023-12-28T16:45:59.190Z,74.74
2023-12-28T16:48:26.765Z,74.82
2023-12-28T16:50:56.046Z,75.01
2023-12-28T16:53:23.245Z,75.10
2023-12-28T16:55:50.309Z,75.16
2023-12-28T16:58:17.772Z,75.19
2023-12-28T17:00:45.230Z,75.31
2023-12-28T17:03:12.821Z,75.34
2023-12-28T17:05:40.653Z,75.34
2023-12-28T17:08:08.044Z,75.39
2023-12-28T17:10:36.060Z,75.51
2023-12-28T17:13:03.494Z,75.58
2023-12-28T17:15:31.591Z,75.63
2023-12-28T17:17:59.476Z,75.59
2023-12-28T17:20:27.780Z,75.51
2023-12-28T17:23:09.835Z,75.53
2023-12-28T17:25:56.125Z,75.50
2023-12-28T17:28:25.454Z,75.53
2023-12-28T17:30:54.869Z,75.61
2023-12-28T17:33:23.399Z,75.54
2023-12-28T17:35:50.986Z,75.52
2023-12-28T17:38:18.435Z,75.46
2023-12-28T17:40:46.209Z,75.38
2023-12-28T17:43:13.161Z,75.30
2023-12-28T17:46:09.630Z,75.19
2023-12-28T17:48:40.829Z,75.05
2023-12-28T17:51:08.699Z,74.99
2023-12-28T17:53:36.650Z,75.00
2023-12-28T17:56:05.150Z,75.09
2023-12-28T17:58:32.709Z,75.10
2023-12-28T18:01:00.607Z,75.08
2023-12-28T18:03:27.961Z,75.14
2023-12-28T18:05:55.333Z,75.00
2023-12-28T18:08:23.208Z,75.01
2023-12-28T18:10:50.300Z,75.14
2023-12-28T18:13:18.198Z,75.08
2023-12-28T18:15:45.634Z,75.25
2023-12-28T18:18:13.243Z,75.31
2023-12-28T18:20:40.034Z,75.39
2023-12-28T18:23:07.300Z,75.46
2023-12-28T18:25:34.821Z,75.41
2023-12-28T18:28:03.020Z,75.62
2023-12-28T18:30:31.995Z,75.63
2023-12-28T18:32:59.631Z,75.64
2023-12-28T18:35:26.462Z,75.65
2023-12-28T18:37:53.351Z,75.53
2023-12-28T18:40:24.485Z,75.51
2023-12-28T18:42:52.791Z,75.43
2023-12-28T18:45:20.330Z,75.46
2023-12-28T18:47:48.558Z,75.47
2023-12-28T18:50:15.798Z,75.63
2023-12-28T18:52:43.403Z,75.68
2023-12-28T18:55:11.023Z,75.65
2023-12-28T18:57:38.925Z,75.62
2023-12-28T19:00:07.890Z,75.72
2023-12-28T19:02:35.388Z,76.04
2023-12-28T19:05:04.137Z,76.13
2023-12-28T19:07:32.258Z,75.77
2023-12-28T19:09:59.302Z,75.71
2023-12-28T19:12:27.152Z,75.80
2023-12-28T19:14:56.761Z,75.72
2023-12-28T19:17:24.711Z,75.70
2023-12-28T19:19:53.265Z,75.72
2023-12-28T19:22:21.859Z,75.68
2023-12-28T19:24:49.913Z,75.62
2023-12-28T19:27:18.449Z,75.75
2023-12-28T19:29:46.006Z,75.92
2023-12-28T19:32:14.116Z,75.77
2023-12-28T19:34:42.407Z,75.68
2023-12-28T19:37:11.157Z,75.65
2023-12-28T19:39:39.230Z,75.61
2023-12-28T19:42:07.364Z,75.59
2023-12-28T19:44:35.565Z,75.57
2023-12-28T19:47:03.286Z,75.65
2023-12-28T19:49:31.064Z,75.72
2023-12-28T19:51:59.176Z,75.69
2023-12-28T19:54:26.471Z,75.68
2023-12-28T19:56:54.415Z,75.70
2023-12-28T19:59:22.794Z,75.69
2023-12-28T20:01:52.069Z,75.64
2023-12-28T20:04:20.006Z,75.69
2023-12-28T20:06:48.907Z,75.74
2023-12-28T20:09:16.777Z,75.69
2023-12-28T20:11:45.669Z,75.65
2023-12-28T20:14:13.820Z,75.68
2023-12-28T20:16:42.276Z,75.75
2023-12-28T20:19:10.134Z,75.78
2023-12-28T20:21:39.201Z,75.74
2023-12-28T20:24:07.314Z,75.73
2023-12-28T20:26:35.062Z,75.64
2023-12-28T20:29:02.729Z,75.67
2023-12-28T20:31:33.129Z,75.61
2023-12-28T20:34:00.593Z,75.61
2023-12-28T20:36:28.364Z,75.62
2023-12-28T20:38:56.585Z,75.59
2023-12-28T20:41:24.139Z,75.62
2023-12-28T20:43:53.566Z,75.71
2023-12-28T20:46:21.908Z,75.72
2023-12-28T20:48:49.916Z,75.72
2023-12-28T20:51:21.761Z,75.67
2023-12-28T20:53:49.724Z,75.67
2023-12-28T20:56:17.446Z,75.72
2023-12-28T20:58:45.617Z,75.64
2023-12-28T21:01:13.081Z,75.60
2023-12-28T21:03:40.633Z,75.58
2023-12-28T21:06:07.983Z,75.54
2023-12-28T21:08:34.894Z,75.49
2023-12-28T21:11:02.484Z,75.48
2023-12-28T21:13:33.995Z,75.43
2023-12-28T21:16:02.469Z,75.48
2023-12-28T21:18:31.574Z,75.37
2023-12-28T21:21:09.292Z,75.34
2023-12-28T21:23:40.286Z,75.40
2023-12-28T21:26:08.013Z,75.39
2023-12-28T21:28:35.207Z,75.29
2023-12-28T21:31:02.626Z,75.32
2023-12-28T21:33:30.714Z,75.30
2023-12-28T21:35:57.948Z,75.25
2023-12-28T21:38:25.484Z,75.16
2023-12-28T21:40:52.504Z,75.11
2023-12-28T21:43:20.376Z,75.17
2023-12-28T21:45:48.713Z,75.19
2023-12-28T21:48:15.638Z,75.13
2023-12-28T21:50:43.246Z,75.03
2023-12-28T21:53:11.378Z,75.09
2023-12-28T21:55:38.370Z,75.08
2023-12-28T21:58:06.813Z,75.02
2023-12-28T22:00:33.917Z,75.07
2023-12-28T22:03:01.860Z,74.95
2023-12-28T22:05:29.751Z,74.99
2023-12-28T22:07:57.739Z,74.92
2023-12-28T22:10:24.725Z,74.90
2023-12-28T22:12:52.504Z,74.89
2023-12-28T22:15:19.647Z,74.88
2023-12-28T22:17:46.864Z,74.80
2023-12-28T22:20:14.761Z,74.73
2023-12-28T22:22:42.141Z,74.62
2023-12-28T22:25:10.087Z,74.56
2023-12-28T22:27:38.032Z,74.50
2023-12-28T22:30:05.878Z,74.41
2023-12-28T22:32:33.869Z,74.40
2023-12-28T22:35:01.061Z,74.41
2023-12-28T22:37:27.992Z,74.34
2023-12-28T22:39:55.785Z,74.32
2023-12-28T22:42:24.187Z,74.23
2023-12-28T22:44:52.524Z,74.25
2023-12-28T22:47:21.823Z,74.29
2023-12-28T22:49:49.277Z,74.30
2023-12-28T22:52:17.218Z,74.22
2023-12-28T22:54:45.579Z,74.23
2023-12-28T22:57:12.458Z,74.29
2023-12-28T22:59:43.949Z,74.29
2023-12-28T23:02:13.460Z,74.23
2023-12-28T23:04:49.779Z,74.27
2023-12-28T23:07:24.779Z,74.33
2023-12-28T23:09:53.163Z,74.39
2023-12-28T23:12:21.069Z,74.44
2023-12-28T23:14:47.963Z,74.38
2023-12-28T23:17:14.773Z,74.29
2023-12-28T23:19:46.536Z,74.27
2023-12-28T23:22:13.835Z,74.29
2023-12-28T23:24:42.360Z,74.22
2023-12-28T23:27:12.929Z,74.12
2023-12-28T23:29:41.281Z,74.09
2023-12-28T23:32:08.608Z,74.09
2023-12-28T23:34:36.249Z,74.03
2023-12-28T23:37:03.653Z,74.05
2023-12-28T23:39:30.742Z,73.98
2023-12-28T23:41:58.530Z,73.93
2023-12-28T23:44:25.578Z,73.96
2023-12-28T23:46:52.543Z,73.89
2023-12-28T23:49:20.273Z,73.89
2023-12-28T23:51:47.753Z,73.84
2023-12-28T23:54:15.257Z,73.76
2023-12-28T23:56:42.029Z,73.74
2023-12-28T23:59:09.827Z,73.71
